sensor_id;sensor_type;location;lat;lon;timestamp;P1;durP1;ratioP1;P2;durP2;ratioP2
78508;SDS011;67802;50.846;7.958;2023-04-24T00:00:18;0.95;;;0.60;;
78508;SDS011;67802;50.846;7.958;2023-04-24T00:02:43;0.90;;;0.60;;
78508;SDS011;67802;50.846;7.958;2023-04-24T00:05:16;1.38;;;0.47;;
78508;SDS011;67802;50.846;7.958;2023-04-24T00:07:42;1.95;;;0.52;;
78508;SDS011;67802;50.846;7.958;2023-04-24T00:10:08;1.30;;;0.50;;
78508;SDS011;67802;50.846;7.958;2023-04-24T00:12:34;0.50;;;0.32;;
78508;SDS011;67802;50.846;7.958;2023-04-24T00:15:00;0.77;;;0.57;;
78508;SDS011;67802;50.846;7.958;2023-04-24T00:17:26;0.68;;;0.35;;
78508;SDS011;67802;50.846;7.958;2023-04-24T00:19:51;0.88;;;0.50;;
78508;SDS011;67802;50.846;7.958;2023-04-24T00:22:23;1.05;;;0.43;;
78508;SDS011;67802;50.846;7.958;2023-04-24T00:24:48;1.10;;;0.40;;
78508;SDS011;67802;50.846;7.958;2023-04-24T00:27:13;0.63;;;0.53;;
78508;SDS011;67802;50.846;7.958;2023-04-24T00:29:39;0.45;;;0.45;;
78508;SDS011;67802;50.846;7.958;2023-04-24T00:32:04;0.73;;;0.57;;
78508;SDS011;67802;50.846;7.958;2023-04-24T00:34:29;0.47;;;0.43;;
78508;SDS011;67802;50.846;7.958;2023-04-24T00:36:57;0.85;;;0.35;;
78508;SDS011;67802;50.846;7.958;2023-04-24T00:39:22;0.82;;;0.50;;
78508;SDS011;67802;50.846;7.958;2023-04-24T00:41:47;0.68;;;0.40;;
78508;SDS011;67802;50.846;7.958;2023-04-24T00:44:13;0.75;;;0.55;;
78508;SDS011;67802;50.846;7.958;2023-04-24T00:46:39;0.70;;;0.40;;
78508;SDS011;67802;50.846;7.958;2023-04-24T00:49:05;0.77;;;0.45;;
78508;SDS011;67802;50.846;7.958;2023-04-24T00:51:31;1.23;;;0.50;;
78508;SDS011;67802;50.846;7.958;2023-04-24T00:53:57;0.35;;;0.35;;
78508;SDS011;67802;50.846;7.958;2023-04-24T00:56:23;0.65;;;0.60;;
78508;SDS011;67802;50.846;7.958;2023-04-24T00:58:49;0.52;;;0.50;;
78508;SDS011;67802;50.846;7.958;2023-04-24T01:01:15;0.60;;;0.40;;
78508;SDS011;67802;50.846;7.958;2023-04-24T01:03:40;0.98;;;0.60;;
78508;SDS011;67802;50.846;7.958;2023-04-24T01:06:06;1.45;;;0.40;;
78508;SDS011;67802;50.846;7.958;2023-04-24T01:08:32;1.05;;;0.57;;
78508;SDS011;67802;50.846;7.958;2023-04-24T01:10:58;0.47;;;0.38;;
78508;SDS011;67802;50.846;7.958;2023-04-24T01:13:23;0.82;;;0.60;;
78508;SDS011;67802;50.846;7.958;2023-04-24T01:15:49;0.45;;;0.40;;
78508;SDS011;67802;50.846;7.958;2023-04-24T01:18:14;0.43;;;0.35;;
78508;SDS011;67802;50.846;7.958;2023-04-24T01:20:42;0.40;;;0.40;;
78508;SDS011;67802;50.846;7.958;2023-04-24T01:23:10;0.50;;;0.50;;
78508;SDS011;67802;50.846;7.958;2023-04-24T01:25:36;0.60;;;0.45;;
78508;SDS011;67802;50.846;7.958;2023-04-24T01:28:02;0.30;;;0.30;;
78508;SDS011;67802;50.846;7.958;2023-04-24T01:30:28;1.20;;;0.55;;
78508;SDS011;67802;50.846;7.958;2023-04-24T01:32:54;1.27;;;0.50;;
78508;SDS011;67802;50.846;7.958;2023-04-24T01:35:20;0.85;;;0.50;;
78508;SDS011;67802;50.846;7.958;2023-04-24T01:37:45;0.40;;;0.40;;
78508;SDS011;67802;50.846;7.958;2023-04-24T01:40:11;0.52;;;0.50;;
78508;SDS011;67802;50.846;7.958;2023-04-24T01:42:37;0.63;;;0.45;;
78508;SDS011;67802;50.846;7.958;2023-04-24T01:45:03;0.30;;;0.30;;
78508;SDS011;67802;50.846;7.958;2023-04-24T01:47:30;0.63;;;0.30;;
78508;SDS011;67802;50.846;7.958;2023-04-24T01:49:56;0.32;;;0.25;;
78508;SDS011;67802;50.846;7.958;2023-04-24T01:52:22;0.50;;;0.30;;
78508;SDS011;67802;50.846;7.958;2023-04-24T01:54:47;0.43;;;0.30;;
78508;SDS011;67802;50.846;7.958;2023-04-24T01:57:13;0.40;;;0.25;;
78508;SDS011;67802;50.846;7.958;2023-04-24T01:59:39;0.50;;;0.30;;
78508;SDS011;67802;50.846;7.958;2023-04-24T02:02:05;1.02;;;0.50;;
78508;SDS011;67802;50.846;7.958;2023-04-24T02:04:30;0.30;;;0.30;;
78508;SDS011;67802;50.846;7.958;2023-04-24T02:06:55;0.30;;;0.30;;
78508;SDS011;67802;50.846;7.958;2023-04-24T02:09:21;0.65;;;0.30;;
78508;SDS011;67802;50.846;7.958;2023-04-24T02:11:46;0.57;;;0.40;;
78508;SDS011;67802;50.846;7.958;2023-04-24T02:14:11;0.60;;;0.50;;
78508;SDS011;67802;50.846;7.958;2023-04-24T02:16:37;0.30;;;0.30;;
78508;SDS011;67802;50.846;7.958;2023-04-24T02:19:02;0.47;;;0.30;;
78508;SDS011;67802;50.846;7.958;2023-04-24T02:21:28;0.28;;;0.28;;
78508;SDS011;67802;50.846;7.958;2023-04-24T02:23:53;0.38;;;0.30;;
78508;SDS011;67802;50.846;7.958;2023-04-24T02:26:19;0.63;;;0.43;;
78508;SDS011;67802;50.846;7.958;2023-04-24T02:28:44;0.40;;;0.40;;
78508;SDS011;67802;50.846;7.958;2023-04-24T02:31:10;0.80;;;0.40;;
78508;SDS011;67802;50.846;7.958;2023-04-24T02:33:35;0.63;;;0.40;;
78508;SDS011;67802;50.846;7.958;2023-04-24T02:36:01;0.63;;;0.50;;
78508;SDS011;67802;50.846;7.958;2023-04-24T02:38:27;0.43;;;0.40;;
78508;SDS011;67802;50.846;7.958;2023-04-24T02:40:52;0.50;;;0.50;;
78508;SDS011;67802;50.846;7.958;2023-04-24T02:43:17;0.75;;;0.30;;
78508;SDS011;67802;50.846;7.958;2023-04-24T02:45:43;0.60;;;0.50;;
78508;SDS011;67802;50.846;7.958;2023-04-24T02:48:08;0.70;;;0.40;;
78508;SDS011;67802;50.846;7.958;2023-04-24T02:50:33;0.40;;;0.40;;
78508;SDS011;67802;50.846;7.958;2023-04-24T02:52:59;0.70;;;0.35;;
78508;SDS011;67802;50.846;7.958;2023-04-24T02:55:24;0.52;;;0.40;;
78508;SDS011;67802;50.846;7.958;2023-04-24T02:57:50;0.77;;;0.40;;
78508;SDS011;67802;50.846;7.958;2023-04-24T03:00:15;0.50;;;0.22;;
78508;SDS011;67802;50.846;7.958;2023-04-24T03:02:41;0.50;;;0.30;;
78508;SDS011;67802;50.846;7.958;2023-04-24T03:05:06;0.20;;;0.20;;
78508;SDS011;67802;50.846;7.958;2023-04-24T03:07:32;0.30;;;0.30;;
78508;SDS011;67802;50.846;7.958;2023-04-24T03:09:58;0.25;;;0.25;;
78508;SDS011;67802;50.846;7.958;2023-04-24T03:12:24;0.65;;;0.40;;
78508;SDS011;67802;50.846;7.958;2023-04-24T03:14:49;0.35;;;0.35;;
78508;SDS011;67802;50.846;7.958;2023-04-24T03:17:15;0.80;;;0.32;;
78508;SDS011;67802;50.846;7.958;2023-04-24T03:19:40;0.47;;;0.40;;
78508;SDS011;67802;50.846;7.958;2023-04-24T03:22:06;0.20;;;0.20;;
78508;SDS011;67802;50.846;7.958;2023-04-24T03:24:31;0.80;;;0.50;;
78508;SDS011;67802;50.846;7.958;2023-04-24T03:26:57;0.20;;;0.20;;
78508;SDS011;67802;50.846;7.958;2023-04-24T03:29:22;0.60;;;0.50;;
78508;SDS011;67802;50.846;7.958;2023-04-24T03:31:48;0.38;;;0.20;;
78508;SDS011;67802;50.846;7.958;2023-04-24T03:34:13;0.57;;;0.40;;
78508;SDS011;67802;50.846;7.958;2023-04-24T03:36:38;0.50;;;0.50;;
78508;SDS011;67802;50.846;7.958;2023-04-24T03:39:03;0.30;;;0.30;;
78508;SDS011;67802;50.846;7.958;2023-04-24T03:41:29;0.20;;;0.20;;
78508;SDS011;67802;50.846;7.958;2023-04-24T03:43:55;0.55;;;0.40;;
78508;SDS011;67802;50.846;7.958;2023-04-24T03:46:20;1.02;;;0.45;;
78508;SDS011;67802;50.846;7.958;2023-04-24T03:48:46;0.50;;;0.40;;
78508;SDS011;67802;50.846;7.958;2023-04-24T03:51:11;0.80;;;0.38;;
78508;SDS011;67802;50.846;7.958;2023-04-24T03:53:36;0.43;;;0.40;;
78508;SDS011;67802;50.846;7.958;2023-04-24T03:56:02;2.17;;;0.50;;
78508;SDS011;67802;50.846;7.958;2023-04-24T03:58:27;0.68;;;0.50;;
78508;SDS011;67802;50.846;7.958;2023-04-24T04:00:52;0.40;;;0.40;;
78508;SDS011;67802;50.846;7.958;2023-04-24T04:03:18;0.65;;;0.43;;
78508;SDS011;67802;50.846;7.958;2023-04-24T04:05:43;1.35;;;0.50;;
78508;SDS011;67802;50.846;7.958;2023-04-24T04:08:08;0.20;;;0.20;;
78508;SDS011;67802;50.846;7.958;2023-04-24T04:10:34;1.48;;;0.60;;
78508;SDS011;67802;50.846;7.958;2023-04-24T04:12:59;0.50;;;0.50;;
78508;SDS011;67802;50.846;7.958;2023-04-24T04:15:25;0.40;;;0.30;;
78508;SDS011;67802;50.846;7.958;2023-04-24T04:17:50;0.50;;;0.50;;
78508;SDS011;67802;50.846;7.958;2023-04-24T04:20:15;0.50;;;0.50;;
78508;SDS011;67802;50.846;7.958;2023-04-24T04:22:41;1.05;;;0.50;;
78508;SDS011;67802;50.846;7.958;2023-04-24T04:25:06;0.90;;;0.57;;
78508;SDS011;67802;50.846;7.958;2023-04-24T04:27:33;1.33;;;0.50;;
78508;SDS011;67802;50.846;7.958;2023-04-24T04:29:59;0.65;;;0.50;;
78508;SDS011;67802;50.846;7.958;2023-04-24T04:32:30;0.85;;;0.50;;
78508;SDS011;67802;50.846;7.958;2023-04-24T04:34:58;0.40;;;0.40;;
78508;SDS011;67802;50.846;7.958;2023-04-24T04:37:23;0.45;;;0.40;;
78508;SDS011;67802;50.846;7.958;2023-04-24T04:39:48;0.93;;;0.52;;
78508;SDS011;67802;50.846;7.958;2023-04-24T04:42:14;1.27;;;0.60;;
78508;SDS011;67802;50.846;7.958;2023-04-24T04:44:40;0.32;;;0.32;;
78508;SDS011;67802;50.846;7.958;2023-04-24T04:47:05;0.60;;;0.60;;
78508;SDS011;67802;50.846;7.958;2023-04-24T04:49:32;0.95;;;0.70;;
78508;SDS011;67802;50.846;7.958;2023-04-24T04:51:57;0.57;;;0.50;;
78508;SDS011;67802;50.846;7.958;2023-04-24T04:54:22;1.07;;;0.60;;
78508;SDS011;67802;50.846;7.958;2023-04-24T04:56:51;0.35;;;0.30;;
78508;SDS011;67802;50.846;7.958;2023-04-24T04:59:16;0.50;;;0.50;;
78508;SDS011;67802;50.846;7.958;2023-04-24T05:01:41;1.17;;;0.60;;
78508;SDS011;67802;50.846;7.958;2023-04-24T05:04:07;1.02;;;0.70;;
78508;SDS011;67802;50.846;7.958;2023-04-24T05:06:32;1.52;;;0.70;;
78508;SDS011;67802;50.846;7.958;2023-04-24T05:08:57;1.17;;;0.60;;
78508;SDS011;67802;50.846;7.958;2023-04-24T05:11:23;0.77;;;0.63;;
78508;SDS011;67802;50.846;7.958;2023-04-24T05:13:48;0.65;;;0.50;;
78508;SDS011;67802;50.846;7.958;2023-04-24T05:16:14;1.02;;;0.60;;
78508;SDS011;67802;50.846;7.958;2023-04-24T05:18:39;1.00;;;0.60;;
78508;SDS011;67802;50.846;7.958;2023-04-24T05:21:05;0.60;;;0.60;;
78508;SDS011;67802;50.846;7.958;2023-04-24T05:23:30;0.60;;;0.60;;
78508;SDS011;67802;50.846;7.958;2023-04-24T05:25:55;0.50;;;0.50;;
78508;SDS011;67802;50.846;7.958;2023-04-24T05:28:21;0.93;;;0.68;;
78508;SDS011;67802;50.846;7.958;2023-04-24T05:30:46;0.63;;;0.57;;
78508;SDS011;67802;50.846;7.958;2023-04-24T05:33:11;0.88;;;0.60;;
78508;SDS011;67802;50.846;7.958;2023-04-24T05:35:39;0.60;;;0.57;;
78508;SDS011;67802;50.846;7.958;2023-04-24T05:38:10;0.68;;;0.60;;
78508;SDS011;67802;50.846;7.958;2023-04-24T05:40:35;0.68;;;0.60;;
78508;SDS011;67802;50.846;7.958;2023-04-24T05:43:01;0.87;;;0.67;;
78508;SDS011;67802;50.846;7.958;2023-04-24T05:45:26;0.70;;;0.60;;
78508;SDS011;67802;50.846;7.958;2023-04-24T05:47:52;1.13;;;0.60;;
78508;SDS011;67802;50.846;7.958;2023-04-24T05:50:17;0.93;;;0.70;;
78508;SDS011;67802;50.846;7.958;2023-04-24T05:52:42;0.60;;;0.60;;
78508;SDS011;67802;50.846;7.958;2023-04-24T05:55:08;0.60;;;0.60;;
78508;SDS011;67802;50.846;7.958;2023-04-24T05:57:33;0.98;;;0.57;;
78508;SDS011;67802;50.846;7.958;2023-04-24T05:59:58;2.35;;;0.70;;
78508;SDS011;67802;50.846;7.958;2023-04-24T06:02:24;1.02;;;0.65;;
78508;SDS011;67802;50.846;7.958;2023-04-24T06:04:49;0.60;;;0.50;;
78508;SDS011;67802;50.846;7.958;2023-04-24T06:07:14;0.80;;;0.60;;
78508;SDS011;67802;50.846;7.958;2023-04-24T06:09:40;0.80;;;0.70;;
78508;SDS011;67802;50.846;7.958;2023-04-24T06:12:05;1.13;;;0.70;;
78508;SDS011;67802;50.846;7.958;2023-04-24T06:14:33;0.85;;;0.70;;
78508;SDS011;67802;50.846;7.958;2023-04-24T06:16:58;1.10;;;0.60;;
78508;SDS011;67802;50.846;7.958;2023-04-24T06:19:23;0.60;;;0.60;;
78508;SDS011;67802;50.846;7.958;2023-04-24T06:21:49;1.10;;;0.70;;
78508;SDS011;67802;50.846;7.958;2023-04-24T06:24:14;1.20;;;0.70;;
78508;SDS011;67802;50.846;7.958;2023-04-24T06:26:41;1.42;;;0.60;;
78508;SDS011;67802;50.846;7.958;2023-04-24T06:29:06;1.30;;;0.77;;
78508;SDS011;67802;50.846;7.958;2023-04-24T06:31:32;0.73;;;0.55;;
78508;SDS011;67802;50.846;7.958;2023-04-24T06:34:01;1.70;;;0.80;;
78508;SDS011;67802;50.846;7.958;2023-04-24T06:36:27;1.13;;;0.80;;
78508;SDS011;67802;50.846;7.958;2023-04-24T06:38:53;1.33;;;0.70;;
78508;SDS011;67802;50.846;7.958;2023-04-24T06:41:19;1.52;;;0.80;;
78508;SDS011;67802;50.846;7.958;2023-04-24T06:43:44;0.93;;;0.60;;
78508;SDS011;67802;50.846;7.958;2023-04-24T06:46:09;1.20;;;0.70;;
78508;SDS011;67802;50.846;7.958;2023-04-24T06:48:35;1.25;;;0.70;;
78508;SDS011;67802;50.846;7.958;2023-04-24T06:51:00;1.15;;;0.70;;
78508;SDS011;67802;50.846;7.958;2023-04-24T06:53:26;1.42;;;0.80;;
78508;SDS011;67802;50.846;7.958;2023-04-24T06:55:52;0.90;;;0.80;;
78508;SDS011;67802;50.846;7.958;2023-04-24T06:58:17;1.95;;;0.93;;
78508;SDS011;67802;50.846;7.958;2023-04-24T07:00:43;1.63;;;0.90;;
78508;SDS011;67802;50.846;7.958;2023-04-24T07:03:08;1.40;;;0.80;;
78508;SDS011;67802;50.846;7.958;2023-04-24T07:05:33;1.70;;;0.80;;
78508;SDS011;67802;50.846;7.958;2023-04-24T07:08:00;0.85;;;0.65;;
78508;SDS011;67802;50.846;7.958;2023-04-24T07:10:25;1.23;;;0.80;;
78508;SDS011;67802;50.846;7.958;2023-04-24T07:12:53;1.75;;;0.80;;
78508;SDS011;67802;50.846;7.958;2023-04-24T07:15:19;1.38;;;0.80;;
78508;SDS011;67802;50.846;7.958;2023-04-24T07:17:44;1.77;;;0.82;;
78508;SDS011;67802;50.846;7.958;2023-04-24T07:20:10;1.52;;;0.90;;
78508;SDS011;67802;50.846;7.958;2023-04-24T07:22:37;0.88;;;0.63;;
78508;SDS011;67802;50.846;7.958;2023-04-24T07:25:03;2.17;;;0.90;;
78508;SDS011;67802;50.846;7.958;2023-04-24T07:27:28;1.80;;;0.88;;
78508;SDS011;67802;50.846;7.958;2023-04-24T07:29:54;1.35;;;0.73;;
78508;SDS011;67802;50.846;7.958;2023-04-24T07:32:19;1.38;;;0.80;;
78508;SDS011;67802;50.846;7.958;2023-04-24T07:34:45;0.90;;;0.70;;
78508;SDS011;67802;50.846;7.958;2023-04-24T07:37:10;1.52;;;0.80;;
78508;SDS011;67802;50.846;7.958;2023-04-24T07:39:36;2.00;;;0.77;;
78508;SDS011;67802;50.846;7.958;2023-04-24T07:42:01;1.17;;;0.80;;
78508;SDS011;67802;50.846;7.958;2023-04-24T07:44:27;0.75;;;0.70;;
78508;SDS011;67802;50.846;7.958;2023-04-24T07:46:52;1.33;;;0.90;;
78508;SDS011;67802;50.846;7.958;2023-04-24T07:49:18;0.80;;;0.80;;
78508;SDS011;67802;50.846;7.958;2023-04-24T07:51:44;1.17;;;0.80;;
78508;SDS011;67802;50.846;7.958;2023-04-24T07:54:10;1.70;;;0.80;;
78508;SDS011;67802;50.846;7.958;2023-04-24T07:56:35;1.63;;;0.90;;
78508;SDS011;67802;50.846;7.958;2023-04-24T07:59:03;1.65;;;0.80;;
78508;SDS011;67802;50.846;7.958;2023-04-24T08:01:29;1.52;;;0.77;;
78508;SDS011;67802;50.846;7.958;2023-04-24T08:03:54;2.85;;;0.90;;
78508;SDS011;67802;50.846;7.958;2023-04-24T08:06:20;1.38;;;0.80;;
78508;SDS011;67802;50.846;7.958;2023-04-24T08:08:45;1.38;;;0.88;;
78508;SDS011;67802;50.846;7.958;2023-04-24T08:11:11;1.13;;;0.70;;
78508;SDS011;67802;50.846;7.958;2023-04-24T08:13:36;2.53;;;0.93;;
78508;SDS011;67802;50.846;7.958;2023-04-24T08:16:01;1.60;;;0.80;;
78508;SDS011;67802;50.846;7.958;2023-04-24T08:18:27;2.00;;;1.00;;
78508;SDS011;67802;50.846;7.958;2023-04-24T08:20:52;2.33;;;0.90;;
78508;SDS011;67802;50.846;7.958;2023-04-24T08:23:17;2.05;;;1.00;;
78508;SDS011;67802;50.846;7.958;2023-04-24T08:25:43;1.58;;;0.90;;
78508;SDS011;67802;50.846;7.958;2023-04-24T08:28:08;1.02;;;0.70;;
78508;SDS011;67802;50.846;7.958;2023-04-24T08:30:34;1.75;;;0.90;;
78508;SDS011;67802;50.846;7.958;2023-04-24T08:32:59;2.20;;;1.00;;
78508;SDS011;67802;50.846;7.958;2023-04-24T08:35:25;2.30;;;0.90;;
78508;SDS011;67802;50.846;7.958;2023-04-24T08:37:51;1.65;;;0.95;;
78508;SDS011;67802;50.846;7.958;2023-04-24T08:40:17;2.67;;;0.90;;
78508;SDS011;67802;50.846;7.958;2023-04-24T08:42:46;1.52;;;0.90;;
78508;SDS011;67802;50.846;7.958;2023-04-24T08:45:12;1.52;;;0.82;;
78508;SDS011;67802;50.846;7.958;2023-04-24T08:47:38;1.40;;;0.80;;
78508;SDS011;67802;50.846;7.958;2023-04-24T08:50:05;1.45;;;0.80;;
78508;SDS011;67802;50.846;7.958;2023-04-24T08:52:32;2.30;;;1.00;;
78508;SDS011;67802;50.846;7.958;2023-04-24T08:54:59;1.45;;;0.82;;
78508;SDS011;67802;50.846;7.958;2023-04-24T08:57:26;1.55;;;0.80;;
78508;SDS011;67802;50.846;7.958;2023-04-24T08:59:52;1.50;;;0.80;;
78508;SDS011;67802;50.846;7.958;2023-04-24T09:02:18;1.35;;;0.82;;
78508;SDS011;67802;50.846;7.958;2023-04-24T09:04:43;1.13;;;0.70;;
78508;SDS011;67802;50.846;7.958;2023-04-24T09:07:10;1.50;;;0.90;;
78508;SDS011;67802;50.846;7.958;2023-04-24T09:09:37;1.42;;;0.80;;
78508;SDS011;67802;50.846;7.958;2023-04-24T09:12:03;1.10;;;0.70;;
78508;SDS011;67802;50.846;7.958;2023-04-24T09:14:29;1.38;;;0.80;;
78508;SDS011;67802;50.846;7.958;2023-04-24T09:16:56;1.42;;;0.80;;
78508;SDS011;67802;50.846;7.958;2023-04-24T09:19:22;1.42;;;0.85;;
78508;SDS011;67802;50.846;7.958;2023-04-24T09:21:47;1.80;;;0.90;;
78508;SDS011;67802;50.846;7.958;2023-04-24T09:24:17;0.93;;;0.85;;
78508;SDS011;67802;50.846;7.958;2023-04-24T09:26:45;1.85;;;1.00;;
78508;SDS011;67802;50.846;7.958;2023-04-24T09:29:14;2.17;;;0.80;;
78508;SDS011;67802;50.846;7.958;2023-04-24T09:31:41;1.65;;;0.90;;
78508;SDS011;67802;50.846;7.958;2023-04-24T09:34:06;1.10;;;0.80;;
78508;SDS011;67802;50.846;7.958;2023-04-24T09:39:05;2.25;;;0.75;;
78508;SDS011;67802;50.846;7.958;2023-04-24T09:41:33;1.13;;;0.70;;
78508;SDS011;67802;50.846;7.958;2023-04-24T09:44:10;6.10;;;0.90;;
78508;SDS011;67802;50.846;7.958;2023-04-24T09:46:37;1.58;;;0.80;;
78508;SDS011;67802;50.846;7.958;2023-04-24T09:49:09;8.10;;;0.80;;
78508;SDS011;67802;50.846;7.958;2023-04-24T09:51:37;4.18;;;0.77;;
78508;SDS011;67802;50.846;7.958;2023-04-24T09:54:04;0.85;;;0.60;;
78508;SDS011;67802;50.846;7.958;2023-04-24T09:56:35;1.33;;;0.73;;
78508;SDS011;67802;50.846;7.958;2023-04-24T09:59:05;0.90;;;0.60;;
78508;SDS011;67802;50.846;7.958;2023-04-24T10:01:31;1.77;;;0.80;;
78508;SDS011;67802;50.846;7.958;2023-04-24T10:03:57;2.78;;;0.60;;
78508;SDS011;67802;50.846;7.958;2023-04-24T10:06:23;0.80;;;0.70;;
78508;SDS011;67802;50.846;7.958;2023-04-24T10:08:56;1.92;;;0.80;;
78508;SDS011;67802;50.846;7.958;2023-04-24T10:11:23;1.05;;;0.70;;
78508;SDS011;67802;50.846;7.958;2023-04-24T10:13:51;0.82;;;0.70;;
78508;SDS011;67802;50.846;7.958;2023-04-24T10:16:17;1.30;;;0.80;;
78508;SDS011;67802;50.846;7.958;2023-04-24T10:18:43;1.92;;;0.77;;
78508;SDS011;67802;50.846;7.958;2023-04-24T10:21:09;0.88;;;0.63;;
78508;SDS011;67802;50.846;7.958;2023-04-24T10:23:35;0.80;;;0.63;;
78508;SDS011;67802;50.846;7.958;2023-04-24T10:26:01;0.80;;;0.70;;
78508;SDS011;67802;50.846;7.958;2023-04-24T10:28:26;1.02;;;0.75;;
78508;SDS011;67802;50.846;7.958;2023-04-24T10:30:54;1.08;;;0.60;;
78508;SDS011;67802;50.846;7.958;2023-04-24T10:33:20;2.67;;;0.70;;
78508;SDS011;67802;50.846;7.958;2023-04-24T10:35:47;2.20;;;0.70;;
78508;SDS011;67802;50.846;7.958;2023-04-24T10:38:17;0.88;;;0.60;;
78508;SDS011;67802;50.846;7.958;2023-04-24T10:40:49;1.08;;;0.60;;
78508;SDS011;67802;50.846;7.958;2023-04-24T10:43:16;0.68;;;0.52;;
78508;SDS011;67802;50.846;7.958;2023-04-24T10:45:42;15.90;;;0.88;;
78508;SDS011;67802;50.846;7.958;2023-04-24T10:48:28;0.63;;;0.50;;
78508;SDS011;67802;50.846;7.958;2023-04-24T10:50:54;0.95;;;0.55;;
78508;SDS011;67802;50.846;7.958;2023-04-24T10:53:20;1.92;;;0.50;;
78508;SDS011;67802;50.846;7.958;2023-04-24T10:58:23;0.50;;;0.50;;
78508;SDS011;67802;50.846;7.958;2023-04-24T11:00:56;1.42;;;0.55;;
78508;SDS011;67802;50.846;7.958;2023-04-24T11:03:24;2.13;;;0.88;;
78508;SDS011;67802;50.846;7.958;2023-04-24T11:08:30;1.52;;;0.60;;
78508;SDS011;67802;50.846;7.958;2023-04-24T11:11:14;1.20;;;0.65;;
78508;SDS011;67802;50.846;7.958;2023-04-24T11:16:30;0.68;;;0.60;;
78508;SDS011;67802;50.846;7.958;2023-04-24T11:29:38;1.35;;;0.60;;
78508;SDS011;67802;50.846;7.958;2023-04-24T11:32:23;2.03;;;0.70;;
78508;SDS011;67802;50.846;7.958;2023-04-24T11:34:52;1.02;;;0.60;;
78508;SDS011;67802;50.846;7.958;2023-04-24T11:37:19;1.55;;;0.60;;
78508;SDS011;67802;50.846;7.958;2023-04-24T11:39:45;1.25;;;0.60;;
78508;SDS011;67802;50.846;7.958;2023-04-24T11:42:10;1.55;;;0.70;;
78508;SDS011;67802;50.846;7.958;2023-04-24T11:44:39;2.40;;;0.65;;
78508;SDS011;67802;50.846;7.958;2023-04-24T11:47:06;1.40;;;0.60;;
78508;SDS011;67802;50.846;7.958;2023-04-24T11:49:33;2.00;;;0.73;;
78508;SDS011;67802;50.846;7.958;2023-04-24T11:51:59;1.08;;;0.52;;
78508;SDS011;67802;50.846;7.958;2023-04-24T11:54:26;1.58;;;0.88;;
78508;SDS011;67802;50.846;7.958;2023-04-24T11:56:52;1.20;;;0.70;;
78508;SDS011;67802;50.846;7.958;2023-04-24T11:59:17;1.13;;;0.55;;
78508;SDS011;67802;50.846;7.958;2023-04-24T12:01:46;2.25;;;0.80;;
78508;SDS011;67802;50.846;7.958;2023-04-24T12:04:12;1.35;;;0.77;;
78508;SDS011;67802;50.846;7.958;2023-04-24T12:06:38;2.08;;;0.90;;
78508;SDS011;67802;50.846;7.958;2023-04-24T12:09:03;1.77;;;0.73;;
78508;SDS011;67802;50.846;7.958;2023-04-24T12:11:29;0.68;;;0.45;;
78508;SDS011;67802;50.846;7.958;2023-04-24T12:13:55;1.73;;;0.80;;
78508;SDS011;67802;50.846;7.958;2023-04-24T12:16:20;2.90;;;0.88;;
78508;SDS011;67802;50.846;7.958;2023-04-24T12:18:46;1.20;;;0.65;;
78508;SDS011;67802;50.846;7.958;2023-04-24T12:21:18;3.63;;;0.80;;
78508;SDS011;67802;50.846;7.958;2023-04-24T12:23:45;0.80;;;0.63;;
78508;SDS011;67802;50.846;7.958;2023-04-24T12:26:11;2.03;;;0.77;;
78508;SDS011;67802;50.846;7.958;2023-04-24T12:28:38;4.10;;;1.20;;
78508;SDS011;67802;50.846;7.958;2023-04-24T12:31:04;1.48;;;0.82;;
78508;SDS011;67802;50.846;7.958;2023-04-24T12:33:34;2.20;;;0.80;;
78508;SDS011;67802;50.846;7.958;2023-04-24T12:36:00;1.42;;;0.90;;
78508;SDS011;67802;50.846;7.958;2023-04-24T12:38:26;2.60;;;0.80;;
78508;SDS011;67802;50.846;7.958;2023-04-24T12:41:04;1.92;;;0.93;;
78508;SDS011;67802;50.846;7.958;2023-04-24T12:43:34;4.03;;;0.95;;
78508;SDS011;67802;50.846;7.958;2023-04-24T12:46:00;3.90;;;1.00;;
78508;SDS011;67802;50.846;7.958;2023-04-24T12:48:26;2.47;;;0.90;;
78508;SDS011;67802;50.846;7.958;2023-04-24T12:50:52;2.22;;;0.77;;
78508;SDS011;67802;50.846;7.958;2023-04-24T12:53:17;1.92;;;0.93;;
78508;SDS011;67802;50.846;7.958;2023-04-24T12:55:43;2.60;;;0.82;;
78508;SDS011;67802;50.846;7.958;2023-04-24T12:58:09;2.42;;;0.88;;
78508;SDS011;67802;50.846;7.958;2023-04-24T13:00:35;1.92;;;0.80;;
78508;SDS011;67802;50.846;7.958;2023-04-24T13:03:01;2.15;;;0.80;;
78508;SDS011;67802;50.846;7.958;2023-04-24T13:05:26;1.40;;;0.80;;
78508;SDS011;67802;50.846;7.958;2023-04-24T13:07:52;2.45;;;0.95;;
78508;SDS011;67802;50.846;7.958;2023-04-24T13:10:17;1.77;;;0.80;;
78508;SDS011;67802;50.846;7.958;2023-04-24T13:12:44;2.92;;;0.80;;
78508;SDS011;67802;50.846;7.958;2023-04-24T13:15:11;1.88;;;0.93;;
78508;SDS011;67802;50.846;7.958;2023-04-24T13:17:36;1.73;;;0.90;;
78508;SDS011;67802;50.846;7.958;2023-04-24T13:20:02;2.80;;;0.90;;
78508;SDS011;67802;50.846;7.958;2023-04-24T13:22:28;1.73;;;0.90;;
78508;SDS011;67802;50.846;7.958;2023-04-24T13:24:53;1.67;;;0.90;;
78508;SDS011;67802;50.846;7.958;2023-04-24T13:27:18;2.35;;;0.95;;
78508;SDS011;67802;50.846;7.958;2023-04-24T13:29:43;1.77;;;0.90;;
78508;SDS011;67802;50.846;7.958;2023-04-24T13:32:09;2.25;;;0.82;;
78508;SDS011;67802;50.846;7.958;2023-04-24T13:34:35;1.20;;;0.75;;
78508;SDS011;67802;50.846;7.958;2023-04-24T13:37:01;1.67;;;0.80;;
78508;SDS011;67802;50.846;7.958;2023-04-24T13:39:26;3.08;;;1.10;;
78508;SDS011;67802;50.846;7.958;2023-04-24T13:41:52;2.65;;;0.90;;
78508;SDS011;67802;50.846;7.958;2023-04-24T13:44:18;2.88;;;0.85;;
78508;SDS011;67802;50.846;7.958;2023-04-24T13:46:46;2.25;;;0.88;;
78508;SDS011;67802;50.846;7.958;2023-04-24T13:49:12;2.03;;;0.70;;
78508;SDS011;67802;50.846;7.958;2023-04-24T13:51:39;2.75;;;1.00;;
78508;SDS011;67802;50.846;7.958;2023-04-24T13:54:05;2.28;;;0.80;;
78508;SDS011;67802;50.846;7.958;2023-04-24T13:56:30;2.70;;;0.90;;
78508;SDS011;67802;50.846;7.958;2023-04-24T13:58:56;4.35;;;1.00;;
78508;SDS011;67802;50.846;7.958;2023-04-24T14:01:21;1.90;;;0.90;;
78508;SDS011;67802;50.846;7.958;2023-04-24T14:03:50;1.52;;;0.80;;
78508;SDS011;67802;50.846;7.958;2023-04-24T14:06:16;2.45;;;0.90;;
78508;SDS011;67802;50.846;7.958;2023-04-24T14:08:43;3.47;;;1.00;;
78508;SDS011;67802;50.846;7.958;2023-04-24T14:11:09;2.53;;;0.90;;
78508;SDS011;67802;50.846;7.958;2023-04-24T14:13:35;1.35;;;0.90;;
78508;SDS011;67802;50.846;7.958;2023-04-24T14:16:01;2.10;;;0.85;;
78508;SDS011;67802;50.846;7.958;2023-04-24T14:18:26;3.08;;;1.20;;
78508;SDS011;67802;50.846;7.958;2023-04-24T14:20:52;1.95;;;0.98;;
78508;SDS011;67802;50.846;7.958;2023-04-24T14:23:17;2.47;;;1.17;;
78508;SDS011;67802;50.846;7.958;2023-04-24T14:25:43;4.40;;;1.25;;
78508;SDS011;67802;50.846;7.958;2023-04-24T14:28:09;1.75;;;0.90;;
78508;SDS011;67802;50.846;7.958;2023-04-24T14:30:35;2.08;;;0.95;;
78508;SDS011;67802;50.846;7.958;2023-04-24T14:33:02;1.95;;;1.00;;
78508;SDS011;67802;50.846;7.958;2023-04-24T14:35:28;1.80;;;0.85;;
78508;SDS011;67802;50.846;7.958;2023-04-24T14:37:56;1.83;;;0.82;;
78508;SDS011;67802;50.846;7.958;2023-04-24T14:40:21;2.30;;;1.10;;
78508;SDS011;67802;50.846;7.958;2023-04-24T14:42:47;1.77;;;0.90;;
78508;SDS011;67802;50.846;7.958;2023-04-24T14:45:12;3.10;;;1.10;;
78508;SDS011;67802;50.846;7.958;2023-04-24T14:47:37;3.28;;;1.00;;
78508;SDS011;67802;50.846;7.958;2023-04-24T14:50:03;2.17;;;0.98;;
78508;SDS011;67802;50.846;7.958;2023-04-24T14:52:29;2.72;;;1.10;;
78508;SDS011;67802;50.846;7.958;2023-04-24T14:54:54;2.92;;;1.00;;
78508;SDS011;67802;50.846;7.958;2023-04-24T14:57:20;2.78;;;1.10;;
78508;SDS011;67802;50.846;7.958;2023-04-24T14:59:45;1.70;;;0.90;;
78508;SDS011;67802;50.846;7.958;2023-04-24T15:02:10;3.25;;;1.05;;